SIA12 RJAA-KLAX
Flight info
| Callsign | SIA12 |
|---|---|
| Flight time | N/A |
| Altitude | 33000 |
| Route | GULBO Y808 NOLAX Y812 ADNAP OTR5 KALNA 43N160E/N0479F350 44N170E 44N180E 42N170W 41N160W 40N150W/N0489F370 40N145W 40N140W DCT COBAD DCT CEPAS DCT PIRAT DCT BURGL IRNMN2 |
| Aircraft | B77W/H-SDE1E2E3FGHIJ2J3J4J5M1RWXY/LB1D1 |
Departure
| Time | 2026-05-07 06:21 |
|---|---|
| Airport | Narita International Airport (RJAA) |
Arrival
| Time | N/A |
|---|---|
| Airport | Los Angeles International Airport (KLAX) |
| Time | Latitude | Longitude | Altitude | Speed | Heading |
|---|---|---|---|---|---|
| 2026-05-07 06:07 | 35.75981 | 140.38783 | 149 ft | 0 kts | 259° |
| 2026-05-07 06:09 | 35.75982 | 140.38787 | 149 ft | 3 kts | 259° |
| 2026-05-07 06:09 | 35.75987 | 140.38819 | 176 ft | 4 kts | 256° |
| 2026-05-07 06:09 | 35.75994 | 140.38851 | 169 ft | 4 kts | 252° |
| 2026-05-07 06:09 | 35.76002 | 140.38882 | 147 ft | 4 kts | 249° |
| 2026-05-07 06:10 | 35.76011 | 140.38910 | 149 ft | 1 kts | 248° |
| 2026-05-07 06:10 | 35.76012 | 140.38911 | 149 ft | 0 kts | 248° |
| 2026-05-07 06:15 | 35.75985 | 140.38856 | 149 ft | 15 kts | 223° |
| 2026-05-07 06:15 | 35.75869 | 140.38836 | 149 ft | 19 kts | 183° |
| 2026-05-07 06:16 | 35.75751 | 140.38773 | 149 ft | 19 kts | 221° |
| 2026-05-07 06:16 | 35.75696 | 140.38632 | 149 ft | 19 kts | 278° |
| 2026-05-07 06:16 | 35.75757 | 140.38495 | 149 ft | 19 kts | 265° |
| 2026-05-07 06:16 | 35.75727 | 140.38345 | 149 ft | 19 kts | 296° |
| 2026-05-07 06:17 | 35.75831 | 140.38247 | 149 ft | 19 kts | 329° |
| 2026-05-07 06:17 | 35.75944 | 140.38165 | 149 ft | 19 kts | 329° |
| 2026-05-07 06:17 | 35.76060 | 140.38082 | 149 ft | 21 kts | 330° |
| 2026-05-07 06:17 | 35.76205 | 140.37977 | 148 ft | 27 kts | 329° |
| 2026-05-07 06:18 | 35.76386 | 140.37846 | 148 ft | 33 kts | 330° |
| 2026-05-07 06:18 | 35.76599 | 140.37693 | 148 ft | 38 kts | 329° |
| 2026-05-07 06:18 | 35.76841 | 140.37517 | 148 ft | 43 kts | 330° |
| 2026-05-07 06:18 | 35.77099 | 140.37332 | 148 ft | 42 kts | 330° |
| 2026-05-07 06:19 | 35.77337 | 140.37160 | 148 ft | 33 kts | 330° |
| 2026-05-07 06:19 | 35.77488 | 140.37043 | 148 ft | 17 kts | 309° |
| 2026-05-07 06:19 | 35.77475 | 140.36946 | 148 ft | 12 kts | 240° |
| 2026-05-07 06:19 | 35.77429 | 140.36863 | 148 ft | 12 kts | 214° |
| 2026-05-07 06:20 | 35.77354 | 140.36892 | 147 ft | 12 kts | 150° |
| 2026-05-07 06:20 | 35.77220 | 140.36988 | 146 ft | 43 kts | 149° |
| 2026-05-07 06:20 | 35.76742 | 140.37332 | 149 ft | 112 kts | 149° |
| 2026-05-07 06:20 | 35.75903 | 140.37938 | 151 ft | 168 kts | 149° |
| 2026-05-07 06:21 | 35.74833 | 140.38708 | 492 ft | 182 kts | 151° |
| 2026-05-07 06:21 | 35.73706 | 140.39511 | 968 ft | 189 kts | 154° |
| 2026-05-07 06:21 | 35.72559 | 140.40324 | 1542 ft | 191 kts | 154° |
| 2026-05-07 06:21 | 35.71406 | 140.41145 | 2079 ft | 196 kts | 154° |
| 2026-05-07 06:22 | 35.70162 | 140.42025 | 2289 ft | 217 kts | 153° |
| 2026-05-07 06:22 | 35.67289 | 140.44088 | 2893 ft | 251 kts | 152° |
| 2026-05-07 06:22 | 35.65772 | 140.45195 | 3526 ft | 257 kts | 152° |
| 2026-05-07 06:23 | 35.64217 | 140.46332 | 4187 ft | 263 kts | 152° |
| 2026-05-07 06:23 | 35.62628 | 140.47487 | 4890 ft | 266 kts | 152° |
| 2026-05-07 06:23 | 35.61020 | 140.48652 | 5559 ft | 271 kts | 153° |
| 2026-05-07 06:23 | 35.59387 | 140.49833 | 6215 ft | 273 kts | 153° |
| 2026-05-07 06:24 | 35.57761 | 140.51008 | 6848 ft | 275 kts | 153° |
| 2026-05-07 06:24 | 35.56107 | 140.52198 | 7482 ft | 277 kts | 154° |
| 2026-05-07 06:24 | 35.54432 | 140.53399 | 8116 ft | 279 kts | 154° |
| 2026-05-07 06:24 | 35.52744 | 140.54610 | 8714 ft | 283 kts | 154° |
| 2026-05-07 06:25 | 35.51039 | 140.55833 | 9347 ft | 285 kts | 155° |
| 2026-05-07 06:25 | 35.49320 | 140.57067 | 9971 ft | 287 kts | 155° |
| 2026-05-07 06:25 | 35.47567 | 140.58321 | 10358 ft | 299 kts | 155° |
| 2026-05-07 06:25 | 35.45703 | 140.59649 | 10508 ft | 321 kts | 155° |
| 2026-05-07 06:26 | 35.43718 | 140.61079 | 10660 ft | 340 kts | 152° |
| 2026-05-07 06:26 | 35.41916 | 140.63112 | 10763 ft | 367 kts | 130° |
| 2026-05-07 06:26 | 35.40467 | 140.65768 | 11032 ft | 382 kts | 127° |
| 2026-05-07 06:26 | 35.38992 | 140.68523 | 11579 ft | 390 kts | 128° |
| 2026-05-07 06:27 | 35.37483 | 140.71308 | 12305 ft | 394 kts | 128° |
| 2026-05-07 06:27 | 35.35947 | 140.74112 | 13129 ft | 398 kts | 128° |
| 2026-05-07 06:27 | 35.34387 | 140.76934 | 13862 ft | 403 kts | 128° |
| 2026-05-07 06:27 | 35.32801 | 140.79787 | 14486 ft | 407 kts | 128° |
| 2026-05-07 06:28 | 35.31194 | 140.82669 | 15091 ft | 412 kts | 129° |
| 2026-05-07 06:28 | 35.29570 | 140.85578 | 15679 ft | 417 kts | 129° |
| 2026-05-07 06:28 | 35.27917 | 140.88536 | 16291 ft | 422 kts | 129° |
| 2026-05-07 06:28 | 35.26275 | 140.91474 | 16920 ft | 426 kts | 129° |
| 2026-05-07 06:29 | 35.24585 | 140.94493 | 17488 ft | 432 kts | 129° |
| 2026-05-07 06:29 | 35.22880 | 140.97591 | 18039 ft | 435 kts | 125° |
| 2026-05-07 06:29 | 35.21745 | 141.01041 | 18332 ft | 455 kts | 103° |
| 2026-05-07 06:29 | 35.21618 | 141.04943 | 18874 ft | 464 kts | 85° |
| 2026-05-07 06:30 | 35.22418 | 141.08776 | 19418 ft | 466 kts | 69° |
| 2026-05-07 06:30 | 35.23109 | 141.10864 | 19625 ft | 470 kts | 68° |
| 2026-05-07 06:30 | 35.24381 | 141.14547 | 20032 ft | 477 kts | 67° |
| 2026-05-07 06:30 | 35.25684 | 141.18299 | 20555 ft | 480 kts | 68° |
| 2026-05-07 06:31 | 35.26975 | 141.22082 | 21134 ft | 483 kts | 68° |
| 2026-05-07 06:31 | 35.28248 | 141.25899 | 21657 ft | 486 kts | 68° |
| 2026-05-07 06:31 | 35.29511 | 141.29747 | 22136 ft | 491 kts | 69° |
| 2026-05-07 06:31 | 35.30783 | 141.33656 | 22631 ft | 495 kts | 69° |
| 2026-05-07 06:32 | 35.32058 | 141.37582 | 23120 ft | 499 kts | 69° |
| 2026-05-07 06:32 | 35.33347 | 141.41545 | 23588 ft | 503 kts | 69° |
| 2026-05-07 06:32 | 35.34644 | 141.45537 | 23951 ft | 507 kts | 69° |
| 2026-05-07 06:32 | 35.35945 | 141.49561 | 24332 ft | 510 kts | 69° |
| 2026-05-07 06:33 | 35.37250 | 141.53616 | 24731 ft | 513 kts | 69° |
| 2026-05-07 06:33 | 35.38562 | 141.57701 | 25132 ft | 516 kts | 69° |
| 2026-05-07 06:33 | 35.39864 | 141.61757 | 25523 ft | 519 kts | 69° |
| 2026-05-07 06:33 | 35.41188 | 141.65885 | 25910 ft | 522 kts | 69° |
| 2026-05-07 06:34 | 35.42519 | 141.70040 | 26292 ft | 525 kts | 69° |
| 2026-05-07 06:34 | 35.43807 | 141.74224 | 26660 ft | 526 kts | 73° |
| 2026-05-07 06:34 | 35.44488 | 141.78634 | 26935 ft | 524 kts | 91° |
| 2026-05-07 06:34 | 35.44451 | 141.83099 | 27225 ft | 525 kts | 95° |
| 2026-05-07 06:35 | 35.44312 | 141.87582 | 27547 ft | 528 kts | 95° |
| 2026-05-07 06:35 | 35.44175 | 141.92090 | 27907 ft | 530 kts | 95° |
| 2026-05-07 06:35 | 35.44072 | 141.96625 | 28282 ft | 532 kts | 94° |
| 2026-05-07 06:35 | 35.44005 | 142.01183 | 28630 ft | 535 kts | 94° |
| 2026-05-07 06:36 | 35.43961 | 142.05750 | 28977 ft | 537 kts | 93° |
| 2026-05-07 06:36 | 35.43930 | 142.10278 | 29286 ft | 539 kts | 93° |
| 2026-05-07 06:36 | 35.43899 | 142.14937 | 29643 ft | 540 kts | 93° |
| 2026-05-07 06:36 | 35.43866 | 142.19480 | 30059 ft | 539 kts | 93° |
| 2026-05-07 06:37 | 35.43827 | 142.24129 | 30435 ft | 538 kts | 93° |
| 2026-05-07 06:37 | 35.43784 | 142.28662 | 30750 ft | 539 kts | 93° |
| 2026-05-07 06:37 | 35.43737 | 142.33267 | 31041 ft | 540 kts | 94° |
| 2026-05-07 06:37 | 35.43687 | 142.37870 | 31349 ft | 540 kts | 94° |
| 2026-05-07 06:38 | 35.43636 | 142.42481 | 31662 ft | 540 kts | 94° |
| 2026-05-07 06:38 | 35.43585 | 142.47092 | 31978 ft | 540 kts | 94° |
| 2026-05-07 06:38 | 35.43532 | 142.51699 | 32285 ft | 541 kts | 94° |
| 2026-05-07 06:38 | 35.43476 | 142.56313 | 32590 ft | 541 kts | 94° |
| 2026-05-07 06:39 | 35.43419 | 142.60937 | 32871 ft | 541 kts | 94° |
| 2026-05-07 06:39 | 35.43359 | 142.65579 | 32935 ft | 546 kts | 94° |
| 2026-05-07 06:39 | 35.43235 | 142.74896 | 32987 ft | 543 kts | 94° |
| 2026-05-07 06:40 | 35.43108 | 142.84058 | 32990 ft | 540 kts | 94° |
| 2026-05-07 06:40 | 35.42972 | 142.93250 | 33002 ft | 539 kts | 94° |
| 2026-05-07 06:41 | 35.42829 | 143.02447 | 33000 ft | 540 kts | 94° |
| 2026-05-07 06:41 | 35.42679 | 143.11666 | 33006 ft | 541 kts | 94° |
| 2026-05-07 06:42 | 35.42523 | 143.20899 | 33012 ft | 542 kts | 94° |
| 2026-05-07 06:42 | 35.42872 | 143.30114 | 33004 ft | 544 kts | 76° |
| 2026-05-07 06:43 | 35.44151 | 143.34476 | 33018 ft | 544 kts | 63° |
| 2026-05-07 06:43 | 35.46106 | 143.38422 | 33017 ft | 542 kts | 49° |
| 2026-05-07 06:43 | 35.51297 | 143.44969 | 33021 ft | 541 kts | 41° |
| 2026-05-07 06:44 | 35.56663 | 143.51574 | 33024 ft | 551 kts | 42° |